Avon, Maine
Current Conditions -  °F | °C
As of 3:15 AM on Thursday 27 Nov 2014 (Local Time) from KWVL Reporting Station
Overcast Overcast  
Wind Chill: 15°   Ceiling: 800
Heat Index: 28°   Visibility: 1mi
Dew Point: 23°   Wind: 20mph
Humidity: 80%   Direction: 360°N
Pressure: 29.7"   Gusts: 30mph
Location:  44.8921°N, 70.379°W
Report Text: KWVL 270815Z 36017G26KT 1SM OVC008 M02/M05 A2970 RMK AO1
Loading
Personal Weather Stations






























Interactive Weather Map New forecast layout! Learn more

10-Day Weather Forecast

Advertisements
Track Severe Weather on mobile